createdAt,value
2018-04-09T00:00:07.320Z,0
2018-04-09T00:01:08.707Z,0
2018-04-09T00:02:10.099Z,0
2018-04-09T00:03:11.485Z,0
2018-04-09T00:04:12.877Z,0
2018-04-09T00:05:14.318Z,0
2018-04-09T00:06:15.712Z,0
2018-04-09T00:07:17.098Z,0
2018-04-09T00:08:18.490Z,0
2018-04-09T00:09:19.896Z,0
2018-04-09T00:10:21.284Z,0
2018-04-09T00:11:22.673Z,0
2018-04-09T00:12:24.099Z,0
2018-04-09T00:13:25.492Z,0
2018-04-09T00:14:26.882Z,0
2018-04-09T00:15:28.272Z,0
2018-04-09T00:16:29.685Z,0
2018-04-09T00:17:31.073Z,0
2018-04-09T00:18:32.481Z,0
2018-04-09T00:19:33.872Z,0
2018-04-09T00:20:35.265Z,0
2018-04-09T00:21:36.652Z,0
2018-04-09T00:22:38.042Z,0
2018-04-09T00:23:39.429Z,0
2018-04-09T00:24:40.936Z,0
2018-04-09T00:25:42.301Z,0
2018-04-09T00:26:43.699Z,0
2018-04-09T00:27:45.091Z,0
2018-04-09T00:28:46.477Z,0
2018-04-09T00:29:47.874Z,0
2018-04-09T00:30:49.270Z,0
2018-04-09T00:31:50.658Z,0
2018-04-09T00:32:52.054Z,0
2018-04-09T00:33:53.438Z,0
2018-04-09T00:34:54.832Z,0
2018-04-09T00:35:56.217Z,0
2018-04-09T00:36:57.607Z,0
2018-04-09T00:37:59.003Z,0
2018-04-09T00:39:00.408Z,0
2018-04-09T00:40:01.858Z,0
2018-04-09T00:41:03.248Z,0
2018-04-09T00:42:04.648Z,0
2018-04-09T00:43:06.037Z,0
2018-04-09T00:44:07.430Z,0
2018-04-09T00:45:08.816Z,0
2018-04-09T00:46:10.208Z,0
2018-04-09T00:47:11.599Z,0
2018-04-09T00:48:12.994Z,0
2018-04-09T00:49:14.419Z,0
2018-04-09T00:50:15.810Z,0
2018-04-09T00:51:17.200Z,0
2018-04-09T00:52:18.591Z,0
2018-04-09T00:53:20.000Z,0
2018-04-09T00:54:21.385Z,0
2018-04-09T00:55:22.776Z,0
2018-04-09T00:56:24.167Z,0
2018-04-09T00:57:25.555Z,0
2018-04-09T00:58:26.954Z,0
2018-04-09T00:59:28.338Z,0
2018-04-09T01:00:29.747Z,0
2018-04-09T01:01:31.137Z,0
2018-04-09T01:02:32.528Z,0
2018-04-09T01:03:33.918Z,0
2018-04-09T01:04:35.334Z,0
2018-04-09T01:05:36.810Z,0
2018-04-09T01:06:38.200Z,0
2018-04-09T01:07:39.589Z,0
2018-04-09T01:08:41.005Z,0
2018-04-09T01:09:42.392Z,0
2018-04-09T01:10:43.788Z,0
2018-04-09T01:11:45.176Z,0
2018-04-09T01:12:46.567Z,0
2018-04-09T01:13:48.060Z,0
2018-04-09T01:14:49.562Z,0
2018-04-09T01:15:50.957Z,0
2018-04-09T01:16:52.346Z,0
2018-04-09T01:17:53.736Z,0
2018-04-09T01:18:55.158Z,0
2018-04-09T01:19:56.546Z,0
2018-04-09T01:20:57.936Z,0
2018-04-09T01:21:59.348Z,0
2018-04-09T01:23:00.735Z,0
2018-04-09T01:24:02.124Z,0
2018-04-09T01:25:03.516Z,0
2018-04-09T01:26:04.901Z,0
2018-04-09T01:27:06.290Z,0
2018-04-09T01:28:07.681Z,0
2018-04-09T01:29:09.068Z,0
2018-04-09T01:30:10.457Z,0
2018-04-09T01:31:11.855Z,0
2018-04-09T01:32:13.247Z,0
2018-04-09T01:33:14.641Z,0
2018-04-09T01:34:16.029Z,0
2018-04-09T01:35:17.410Z,0
2018-04-09T01:36:18.804Z,0
2018-04-09T01:37:20.226Z,0
2018-04-09T01:38:21.620Z,0
2018-04-09T01:39:23.008Z,0
2018-04-09T01:40:24.413Z,0
2018-04-09T01:41:25.811Z,0
2018-04-09T01:42:27.201Z,0
2018-04-09T01:43:28.589Z,0
2018-04-09T01:44:29.979Z,0
2018-04-09T01:45:31.371Z,0
2018-04-09T01:46:32.762Z,0
2018-04-09T01:47:34.176Z,0
2018-04-09T01:48:35.641Z,0
2018-04-09T01:49:37.016Z,0
2018-04-09T01:50:38.410Z,0
2018-04-09T01:51:39.801Z,0
2018-04-09T01:52:41.192Z,0
2018-04-09T01:53:42.581Z,0
2018-04-09T01:54:43.974Z,0
2018-04-09T01:55:45.362Z,0
2018-04-09T01:56:46.750Z,0
2018-04-09T01:57:48.152Z,0
2018-04-09T01:58:49.566Z,0
2018-04-09T01:59:50.955Z,0
2018-04-09T02:00:52.344Z,0
2018-04-09T02:01:53.733Z,0
2018-04-09T02:02:55.305Z,0
2018-04-09T02:03:56.700Z,0
2018-04-09T02:04:58.089Z,0
2018-04-09T02:05:59.586Z,0
2018-04-09T02:07:00.975Z,0
2018-04-09T02:08:02.365Z,0
2018-04-09T02:09:03.769Z,0
2018-04-09T02:10:05.158Z,0
2018-04-09T02:11:06.548Z,0
2018-04-09T02:12:07.935Z,0
2018-04-09T02:13:09.328Z,0
2018-04-09T02:14:10.718Z,0
2018-04-09T02:15:12.124Z,0
2018-04-09T02:16:13.514Z,0
2018-04-09T02:17:14.901Z,0
2018-04-09T02:18:16.328Z,0
2018-04-09T02:19:17.719Z,0
2018-04-09T02:20:19.135Z,0
2018-04-09T02:21:20.534Z,0
2018-04-09T02:22:21.916Z,0
2018-04-09T02:23:23.317Z,0
2018-04-09T02:24:24.703Z,0
2018-04-09T02:25:26.100Z,0
2018-04-09T02:26:27.488Z,0
2018-04-09T02:27:28.877Z,0
2018-04-09T02:28:30.268Z,0
2018-04-09T02:29:31.658Z,0
2018-04-09T02:30:33.052Z,0
2018-04-09T02:31:34.435Z,0
2018-04-09T02:32:35.858Z,0
2018-04-09T02:33:37.248Z,0
2018-04-09T02:34:38.640Z,0
2018-04-09T02:35:40.034Z,0
2018-04-09T02:36:41.421Z,0
2018-04-09T02:37:42.826Z,0
2018-04-09T02:38:44.222Z,0
2018-04-09T02:39:45.613Z,0
2018-04-09T02:40:47.000Z,0
2018-04-09T02:41:48.427Z,0
2018-04-09T02:42:49.810Z,0
2018-04-09T02:43:51.198Z,0
2018-04-09T02:44:52.590Z,0
2018-04-09T02:45:54.009Z,0
2018-04-09T02:46:55.397Z,0
2018-04-09T02:47:56.781Z,0
2018-04-09T02:48:58.178Z,0
2018-04-09T02:49:59.565Z,0
2018-04-09T02:51:01.005Z,0
2018-04-09T02:52:02.544Z,0
2018-04-09T02:53:03.936Z,0
2018-04-09T02:54:05.321Z,0
2018-04-09T02:55:06.716Z,0
2018-04-09T02:56:08.102Z,0
2018-04-09T02:57:09.496Z,0
2018-04-09T02:58:10.885Z,0
2018-04-09T02:59:12.269Z,0
2018-04-09T03:00:13.667Z,0
2018-04-09T03:01:15.050Z,0
2018-04-09T03:02:16.479Z,0
2018-04-09T03:03:17.869Z,0
2018-04-09T03:04:19.263Z,0
2018-04-09T03:05:20.658Z,0
2018-04-09T03:06:22.045Z,0
2018-04-09T03:07:23.441Z,0
2018-04-09T03:08:24.825Z,0
2018-04-09T03:09:26.232Z,0
2018-04-09T03:10:27.602Z,0
2018-04-09T03:11:28.988Z,0
2018-04-09T03:12:30.392Z,0
2018-04-09T03:13:31.835Z,0
2018-04-09T03:14:33.224Z,0
2018-04-09T03:15:34.613Z,0
2018-04-09T03:16:36.023Z,0
2018-04-09T03:17:37.412Z,0
2018-04-09T03:18:38.815Z,0
2018-04-09T03:19:40.208Z,0
2018-04-09T03:20:41.591Z,0
2018-04-09T03:21:42.980Z,0
2018-04-09T03:22:44.384Z,0
2018-04-09T03:23:45.768Z,0
2018-04-09T03:24:47.159Z,0
2018-04-09T03:25:48.552Z,0
2018-04-09T03:26:49.948Z,0
2018-04-09T03:27:51.335Z,0
2018-04-09T03:28:52.724Z,0
2018-04-09T03:29:54.137Z,0
2018-04-09T03:30:55.524Z,0
2018-04-09T03:31:56.941Z,0
2018-04-09T03:32:58.330Z,0
2018-04-09T03:33:59.774Z,0
2018-04-09T03:35:01.161Z,0
2018-04-09T03:36:02.550Z,0
2018-04-09T03:37:03.945Z,0
2018-04-09T03:38:05.338Z,0
2018-04-09T03:39:06.726Z,0
2018-04-09T03:40:08.198Z,0
2018-04-09T03:41:09.663Z,0
2018-04-09T03:42:11.047Z,0
2018-04-09T03:43:12.434Z,0
2018-04-09T03:44:13.831Z,0
2018-04-09T03:45:15.221Z,0
2018-04-09T03:46:16.647Z,0
2018-04-09T03:47:18.038Z,0
2018-04-09T03:48:19.467Z,0
2018-04-09T03:49:20.855Z,0
2018-04-09T03:50:22.244Z,0
2018-04-09T03:51:23.639Z,0
2018-04-09T03:52:25.026Z,0
2018-04-09T03:53:26.414Z,0
2018-04-09T03:54:27.806Z,0
2018-04-09T03:55:29.221Z,0
2018-04-09T03:56:30.606Z,0
2018-04-09T03:57:31.997Z,0
2018-04-09T03:58:33.381Z,0
2018-04-09T03:59:34.773Z,0
2018-04-09T04:00:36.162Z,0
2018-04-09T04:01:37.550Z,0
2018-04-09T04:02:38.977Z,0
2018-04-09T04:03:40.369Z,0
2018-04-09T04:04:41.830Z,0
2018-04-09T04:05:43.218Z,0
2018-04-09T04:06:44.651Z,0
2018-04-09T04:07:46.043Z,0
2018-04-09T04:08:47.430Z,0
2018-04-09T04:09:48.848Z,0
2018-04-09T04:10:50.238Z,0
2018-04-09T04:11:51.668Z,0
2018-04-09T04:12:53.060Z,0
2018-04-09T04:13:54.460Z,0
2018-04-09T04:14:55.846Z,0
2018-04-09T04:15:57.274Z,0
2018-04-09T04:16:58.672Z,0
2018-04-09T04:18:00.059Z,0
2018-04-09T04:19:01.444Z,0
2018-04-09T04:20:02.886Z,0
2018-04-09T04:21:04.433Z,0
2018-04-09T04:22:05.824Z,0
2018-04-09T04:23:07.210Z,0
2018-04-09T04:24:08.619Z,0
2018-04-09T04:25:09.986Z,0
2018-04-09T04:26:11.371Z,0
2018-04-09T04:27:12.780Z,0
2018-04-09T04:28:14.194Z,0
2018-04-09T04:29:15.658Z,0
2018-04-09T04:30:17.190Z,0
2018-04-09T04:31:18.426Z,0
2018-04-09T04:32:19.815Z,0
2018-04-09T04:33:21.201Z,0
2018-04-09T04:34:22.589Z,0
2018-04-09T04:35:23.988Z,0
2018-04-09T04:36:25.380Z,0
2018-04-09T04:37:26.770Z,0
2018-04-09T04:38:28.158Z,0
2018-04-09T04:39:29.619Z,0
2018-04-09T04:40:31.007Z,0
2018-04-09T04:41:32.398Z,0
2018-04-09T04:42:33.798Z,0
2018-04-09T04:43:35.191Z,0
2018-04-09T04:44:36.584Z,0
2018-04-09T04:45:37.975Z,0
2018-04-09T04:46:39.361Z,0
2018-04-09T04:47:40.749Z,0
2018-04-09T04:48:42.140Z,0
2018-04-09T04:49:43.528Z,0
2018-04-09T04:50:44.917Z,0
2018-04-09T04:51:46.308Z,0
2018-04-09T04:52:47.699Z,0
2018-04-09T04:53:49.094Z,0
2018-04-09T04:54:50.484Z,0
2018-04-09T04:55:51.870Z,0
2018-04-09T04:56:53.257Z,0
2018-04-09T04:57:54.645Z,0
2018-04-09T04:58:56.037Z,0
2018-04-09T04:59:57.532Z,0
2018-04-09T05:00:58.948Z,5
2018-04-09T05:02:00.332Z,5
2018-04-09T05:03:01.790Z,5
2018-04-09T05:04:03.113Z,5
2018-04-09T05:05:04.512Z,5
2018-04-09T05:06:05.916Z,5
2018-04-09T05:07:07.311Z,5
2018-04-09T05:08:08.716Z,5
2018-04-09T05:09:10.104Z,5
2018-04-09T05:10:11.493Z,11
2018-04-09T05:11:12.884Z,11
2018-04-09T05:12:14.288Z,11
2018-04-09T05:13:15.694Z,11
2018-04-09T05:14:17.086Z,11
2018-04-09T05:15:18.479Z,11
2018-04-09T05:16:19.870Z,11
2018-04-09T05:17:21.408Z,11
2018-04-09T05:18:22.797Z,11
2018-04-09T05:19:24.185Z,16
2018-04-09T05:20:25.580Z,16
2018-04-09T05:21:26.972Z,16
2018-04-09T05:22:28.368Z,16
2018-04-09T05:23:29.753Z,16
2018-04-09T05:24:31.145Z,16
2018-04-09T05:25:32.545Z,16
2018-04-09T05:26:33.941Z,16
2018-04-09T05:27:35.332Z,16
2018-04-09T05:28:36.727Z,22
2018-04-09T05:29:38.124Z,22
2018-04-09T05:30:39.522Z,22
2018-04-09T05:31:40.926Z,22
2018-04-09T05:32:42.313Z,22
2018-04-09T05:33:43.732Z,22
2018-04-09T05:34:45.127Z,22
2018-04-09T05:35:46.520Z,22
2018-04-09T05:36:47.911Z,22
2018-04-09T05:37:49.318Z,22
2018-04-09T05:38:50.708Z,22
2018-04-09T05:39:52.100Z,22
2018-04-09T05:40:53.494Z,22
2018-04-09T05:41:54.886Z,28
2018-04-09T05:42:56.282Z,28
2018-04-09T05:43:57.712Z,28
2018-04-09T05:44:59.106Z,28
2018-04-09T05:46:00.501Z,28
2018-04-09T05:47:01.936Z,28
2018-04-09T05:48:03.282Z,28
2018-04-09T05:49:04.676Z,28
2018-04-09T05:50:06.072Z,28
2018-04-09T05:51:07.461Z,33
2018-04-09T05:52:08.852Z,33
2018-04-09T05:53:10.279Z,33
2018-04-09T05:54:11.673Z,33
2018-04-09T05:55:13.070Z,33
2018-04-09T05:56:14.469Z,33
2018-04-09T05:57:15.860Z,33
2018-04-09T05:58:17.247Z,39
2018-04-09T05:59:18.696Z,39
2018-04-09T06:00:20.066Z,39
2018-04-09T06:01:21.457Z,39
2018-04-09T06:02:22.849Z,39
2018-04-09T06:03:24.253Z,45
2018-04-09T06:04:25.650Z,45
2018-04-09T06:05:27.094Z,45
2018-04-09T06:06:30.622Z,45
2018-04-09T06:07:32.014Z,45
2018-04-09T06:08:33.409Z,50
2018-04-09T06:09:34.801Z,50
2018-04-09T06:10:36.195Z,50
2018-04-09T06:11:37.594Z,50
2018-04-09T06:12:38.996Z,50
2018-04-09T06:13:40.389Z,50
2018-04-09T06:14:41.783Z,50
2018-04-09T06:15:43.316Z,56
2018-04-09T06:16:44.690Z,56
2018-04-09T06:17:46.083Z,56
2018-04-09T06:18:47.490Z,56
2018-04-09T06:19:48.925Z,56
2018-04-09T06:20:50.318Z,56
2018-04-09T06:21:51.707Z,56
2018-04-09T06:22:53.100Z,56
2018-04-09T06:23:54.514Z,56
2018-04-09T06:24:55.906Z,56
2018-04-09T06:25:57.302Z,56
2018-04-09T06:26:58.719Z,56
2018-04-09T06:28:00.114Z,56
2018-04-09T06:29:01.510Z,61
2018-04-09T06:30:02.902Z,61
2018-04-09T06:31:04.310Z,61
2018-04-09T06:32:05.705Z,61
2018-04-09T06:33:07.098Z,61
2018-04-09T06:34:08.490Z,61
2018-04-09T06:35:09.882Z,61
2018-04-09T06:36:11.277Z,61
2018-04-09T06:37:12.696Z,61
2018-04-09T06:38:14.111Z,61
2018-04-09T06:39:15.506Z,61
2018-04-09T06:40:16.953Z,61
2018-04-09T06:41:18.356Z,67
2018-04-09T06:42:19.748Z,67
2018-04-09T06:43:21.140Z,67
2018-04-09T06:44:22.538Z,67
2018-04-09T06:45:23.962Z,67
2018-04-09T06:46:25.324Z,67
2018-04-09T06:47:26.719Z,73
2018-04-09T06:48:28.105Z,73
2018-04-09T06:49:29.503Z,73
2018-04-09T06:50:30.959Z,78
2018-04-09T06:51:32.424Z,78
2018-04-09T06:52:33.806Z,78
2018-04-09T06:53:35.198Z,78
2018-04-09T06:54:36.593Z,78
2018-04-09T06:55:37.996Z,84
2018-04-09T06:56:39.424Z,84
2018-04-09T06:57:40.819Z,84
2018-04-09T06:58:42.218Z,84
2018-04-09T06:59:43.607Z,90
2018-04-09T07:00:45.001Z,90
2018-04-09T07:01:46.398Z,95
2018-04-09T07:02:47.790Z,95
2018-04-09T07:03:49.209Z,95
2018-04-09T07:04:50.604Z,95
2018-04-09T07:05:51.998Z,101
2018-04-09T07:06:53.394Z,101
2018-04-09T07:07:54.816Z,101
2018-04-09T07:08:56.235Z,101
2018-04-09T07:09:57.607Z,101
2018-04-09T07:10:59.019Z,106
2018-04-09T07:12:00.416Z,106
2018-04-09T07:13:01.806Z,106
2018-04-09T07:14:03.202Z,106
2018-04-09T07:15:04.604Z,106
2018-04-09T07:16:05.999Z,106
2018-04-09T07:17:07.394Z,106
2018-04-09T07:18:08.814Z,112
2018-04-09T07:19:10.207Z,106
2018-04-09T07:20:11.604Z,106
2018-04-09T07:21:13.005Z,106
2018-04-09T07:22:14.402Z,106
2018-04-09T07:23:15.795Z,106
2018-04-09T07:24:17.183Z,112
2018-04-09T07:25:18.618Z,112
2018-04-09T07:26:19.970Z,112
2018-04-09T07:27:21.364Z,118
2018-04-09T07:28:22.760Z,118
2018-04-09T07:29:24.167Z,112
2018-04-09T07:30:25.562Z,118
2018-04-09T07:31:26.956Z,118
2018-04-09T07:32:28.363Z,118
2018-04-09T07:33:29.758Z,118
2018-04-09T07:34:31.153Z,118
2018-04-09T07:35:32.554Z,112
2018-04-09T07:36:33.968Z,112
2018-04-09T07:37:35.365Z,118
2018-04-09T07:38:36.821Z,106
2018-04-09T07:39:38.263Z,101
2018-04-09T07:40:39.708Z,112
2018-04-09T07:41:41.096Z,112
2018-04-09T07:42:42.495Z,112
2018-04-09T07:43:43.908Z,112
2018-04-09T07:44:45.310Z,123
2018-04-09T07:45:46.709Z,129
2018-04-09T07:46:48.105Z,129
2018-04-09T07:47:49.535Z,129
2018-04-09T07:48:50.931Z,129
2018-04-09T07:49:52.328Z,135
2018-04-09T07:50:53.719Z,140
2018-04-09T07:51:55.120Z,140
2018-04-09T07:52:58.210Z,140
2018-04-09T07:53:59.577Z,140
2018-04-09T07:55:00.971Z,135
2018-04-09T07:56:02.365Z,129
2018-04-09T07:57:03.769Z,129
2018-04-09T07:58:05.171Z,129
2018-04-09T07:59:06.579Z,123
2018-04-09T08:00:07.984Z,118
2018-04-09T08:01:09.375Z,123
2018-04-09T08:02:10.778Z,123
2018-04-09T08:03:12.170Z,129
2018-04-09T08:04:13.564Z,140
2018-04-09T08:05:14.965Z,146
2018-04-09T08:06:16.421Z,151
2018-04-09T08:07:17.760Z,151
2018-04-09T08:08:19.187Z,146
2018-04-09T08:09:20.584Z,163
2018-04-09T08:10:21.980Z,191
2018-04-09T08:11:23.394Z,185
2018-04-09T08:12:24.813Z,168
2018-04-09T08:13:26.221Z,146
2018-04-09T08:14:27.612Z,140
2018-04-09T08:15:29.021Z,151
2018-04-09T08:16:30.412Z,151
2018-04-09T08:17:31.819Z,180
2018-04-09T08:18:33.218Z,202
2018-04-09T08:19:34.619Z,174
2018-04-09T08:20:36.015Z,174
2018-04-09T08:21:37.412Z,191
2018-04-09T08:22:38.816Z,185
2018-04-09T08:23:40.213Z,180
2018-04-09T08:24:41.693Z,180
2018-04-09T08:25:43.119Z,191
2018-04-09T08:26:44.563Z,191
2018-04-09T08:27:45.965Z,191
2018-04-09T08:28:47.353Z,202
2018-04-09T08:29:48.752Z,213
2018-04-09T08:30:50.142Z,196
2018-04-09T08:31:51.542Z,191
2018-04-09T08:32:52.940Z,174
2018-04-09T08:33:54.350Z,180
2018-04-09T08:34:55.783Z,168
2018-04-09T08:35:57.178Z,168
2018-04-09T08:36:58.603Z,163
2018-04-09T08:37:59.999Z,163
2018-04-09T08:39:01.400Z,157
2018-04-09T08:40:02.816Z,163
2018-04-09T08:41:04.221Z,163
2018-04-09T08:42:05.620Z,163
2018-04-09T08:43:07.020Z,168
2018-04-09T08:44:08.437Z,163
2018-04-09T08:45:09.837Z,168
2018-04-09T08:46:11.230Z,163
2018-04-09T08:47:12.626Z,174
2018-04-09T08:48:14.040Z,174
2018-04-09T08:49:15.436Z,174
2018-04-09T08:50:16.843Z,174
2018-04-09T08:51:18.220Z,185
2018-04-09T08:52:19.626Z,191
2018-04-09T08:53:21.023Z,202
2018-04-09T08:54:22.431Z,213
2018-04-09T08:55:23.834Z,213
2018-04-09T08:56:25.228Z,213
2018-04-09T08:57:26.619Z,236
2018-04-09T08:58:28.018Z,264
2018-04-09T08:59:29.413Z,247
2018-04-09T09:00:30.812Z,241
2018-04-09T09:01:32.205Z,253
2018-04-09T09:02:33.604Z,258
2018-04-09T09:03:35.022Z,264
2018-04-09T09:04:36.412Z,275
2018-04-09T09:05:37.815Z,264
2018-04-09T09:06:39.212Z,241
2018-04-09T09:07:40.761Z,225
2018-04-09T09:08:42.160Z,225
2018-04-09T09:09:43.552Z,253
2018-04-09T09:10:44.948Z,247
2018-04-09T09:11:46.503Z,225
2018-04-09T09:12:48.038Z,219
2018-04-09T09:13:49.509Z,202
2018-04-09T09:14:50.912Z,202
2018-04-09T09:15:52.356Z,196
2018-04-09T09:16:53.770Z,191
2018-04-09T09:17:55.166Z,191
2018-04-09T09:18:56.558Z,191
2018-04-09T09:19:57.958Z,196
2018-04-09T09:20:59.352Z,196
2018-04-09T09:22:00.963Z,196
2018-04-09T09:23:02.358Z,202
2018-04-09T09:24:03.780Z,202
2018-04-09T09:25:05.180Z,208
2018-04-09T09:26:06.574Z,219
2018-04-09T09:27:07.973Z,236
2018-04-09T09:28:09.389Z,270
2018-04-09T09:29:10.792Z,326
2018-04-09T09:30:12.205Z,298
2018-04-09T09:31:13.597Z,331
2018-04-09T09:32:14.989Z,286
2018-04-09T09:33:16.390Z,264
2018-04-09T09:34:17.784Z,236
2018-04-09T09:35:19.201Z,225
2018-04-09T09:36:20.640Z,219
2018-04-09T09:37:22.073Z,213
2018-04-09T09:38:23.624Z,202
2018-04-09T09:39:25.043Z,196
2018-04-09T09:40:26.680Z,191
2018-04-09T09:41:28.117Z,191
2018-04-09T09:42:29.679Z,196
2018-04-09T09:43:31.166Z,208
2018-04-09T09:44:32.579Z,208
2018-04-09T09:45:34.011Z,213
2018-04-09T09:46:35.444Z,208
2018-04-09T09:47:36.870Z,208
2018-04-09T09:48:38.281Z,202
2018-04-09T09:49:39.701Z,202
2018-04-09T09:50:41.120Z,208
2018-04-09T09:51:42.521Z,213
2018-04-09T09:52:43.921Z,219
2018-04-09T09:53:45.319Z,225
2018-04-09T09:54:46.723Z,230
2018-04-09T09:55:48.145Z,236
2018-04-09T09:56:49.531Z,264
2018-04-09T09:57:51.067Z,247
2018-04-09T09:58:52.483Z,225
2018-04-09T09:59:53.890Z,213
2018-04-09T10:00:55.288Z,208
2018-04-09T10:01:56.717Z,213
2018-04-09T10:02:58.112Z,213
2018-04-09T10:03:59.534Z,225
2018-04-09T10:05:00.975Z,219
2018-04-09T10:06:02.368Z,219
2018-04-09T10:07:03.766Z,225
2018-04-09T10:08:05.162Z,225
2018-04-09T10:09:06.560Z,219
2018-04-09T10:10:07.983Z,213
2018-04-09T10:11:09.385Z,213
2018-04-09T10:12:10.798Z,219
2018-04-09T10:13:12.199Z,219
2018-04-09T10:14:13.656Z,219
2018-04-09T10:15:15.078Z,225
2018-04-09T10:16:16.510Z,225
2018-04-09T10:17:17.968Z,219
2018-04-09T10:18:19.369Z,225
2018-04-09T10:19:20.772Z,219
2018-04-09T10:20:22.219Z,230
2018-04-09T10:21:23.567Z,230
2018-04-09T10:22:24.966Z,236
2018-04-09T10:23:26.476Z,241
2018-04-09T10:24:27.885Z,247
2018-04-09T10:25:29.326Z,253
2018-04-09T10:26:30.777Z,258
2018-04-09T10:27:32.170Z,258
2018-04-09T10:28:33.569Z,270
2018-04-09T10:29:34.995Z,275
2018-04-09T10:30:36.393Z,275
2018-04-09T10:31:37.799Z,270
2018-04-09T10:32:39.230Z,270
2018-04-09T10:33:40.628Z,264
2018-04-09T10:34:42.076Z,264
2018-04-09T10:35:43.478Z,258
2018-04-09T10:36:44.874Z,247
2018-04-09T10:37:46.270Z,247
2018-04-09T10:38:47.924Z,247
2018-04-09T10:39:49.345Z,258
2018-04-09T10:40:50.761Z,258
2018-04-09T10:41:52.179Z,247
2018-04-09T10:42:53.613Z,241
2018-04-09T10:43:55.199Z,241
2018-04-09T10:44:56.651Z,241
2018-04-09T10:45:58.058Z,241
2018-04-09T10:46:59.458Z,247
2018-04-09T10:48:00.855Z,236
2018-04-09T10:49:02.266Z,270
2018-04-09T10:50:03.666Z,275
2018-04-09T10:51:05.070Z,298
2018-04-09T10:52:06.477Z,309
2018-04-09T10:53:07.880Z,315
2018-04-09T10:54:09.271Z,433
2018-04-09T10:55:10.672Z,416
2018-04-09T10:56:12.073Z,427
2018-04-09T10:57:13.491Z,405
2018-04-09T10:58:14.937Z,371
2018-04-09T10:59:16.334Z,337
2018-04-09T11:00:17.734Z,315
2018-04-09T11:01:19.145Z,303
2018-04-09T11:02:20.547Z,303
2018-04-09T11:03:21.976Z,270
2018-04-09T11:04:23.376Z,241
2018-04-09T11:05:24.785Z,236
2018-04-09T11:06:26.185Z,230
2018-04-09T11:07:27.579Z,230
2018-04-09T11:08:28.988Z,230
2018-04-09T11:09:30.384Z,230
2018-04-09T11:10:31.789Z,225
2018-04-09T11:11:33.192Z,213
2018-04-09T11:12:34.694Z,202
2018-04-09T11:13:36.109Z,196
2018-04-09T11:14:37.497Z,191
2018-04-09T11:15:38.893Z,191
2018-04-09T11:16:40.292Z,185
2018-04-09T11:17:41.741Z,185
2018-04-09T11:18:43.220Z,185
2018-04-09T11:19:44.626Z,180
2018-04-09T11:20:46.017Z,180
2018-04-09T11:21:47.461Z,174
2018-04-09T11:22:48.888Z,174
2018-04-09T11:23:50.301Z,174
2018-04-09T11:24:51.693Z,174
2018-04-09T11:25:53.097Z,174
2018-04-09T11:26:54.509Z,168
2018-04-09T11:27:55.944Z,168
2018-04-09T11:28:57.351Z,168
2018-04-09T11:29:58.892Z,168
2018-04-09T11:31:00.330Z,168
2018-04-09T11:32:01.765Z,174
2018-04-09T11:33:03.168Z,180
2018-04-09T11:34:04.629Z,191
2018-04-09T11:35:06.033Z,202
2018-04-09T11:36:07.425Z,225
2018-04-09T11:37:08.879Z,247
2018-04-09T11:38:10.241Z,309
2018-04-09T11:39:11.664Z,360
2018-04-09T11:40:13.093Z,466
2018-04-09T11:41:14.501Z,551
2018-04-09T11:42:15.907Z,545
2018-04-09T11:43:17.310Z,500
2018-04-09T11:44:18.723Z,393
2018-04-09T11:45:20.121Z,315
2018-04-09T11:46:21.525Z,286
2018-04-09T11:47:22.991Z,292
2018-04-09T11:48:24.398Z,270
2018-04-09T11:49:25.795Z,253
2018-04-09T11:50:27.199Z,230
2018-04-09T11:51:28.603Z,219
2018-04-09T11:52:29.960Z,213
2018-04-09T11:53:31.358Z,208
2018-04-09T11:54:32.760Z,202
2018-04-09T11:55:34.198Z,202
2018-04-09T11:56:35.597Z,202
2018-04-09T11:57:37.059Z,202
2018-04-09T11:58:38.469Z,208
2018-04-09T11:59:39.865Z,208
2018-04-09T12:00:41.263Z,208
2018-04-09T12:01:42.693Z,208
2018-04-09T12:02:44.109Z,196
2018-04-09T12:03:45.518Z,191
2018-04-09T12:04:46.925Z,185
2018-04-09T12:05:48.316Z,180
2018-04-09T12:06:49.723Z,180
2018-04-09T12:07:51.126Z,180
2018-04-09T12:08:52.527Z,180
2018-04-09T12:09:53.930Z,180
2018-04-09T12:10:55.328Z,180
2018-04-09T12:11:56.727Z,180
2018-04-09T12:12:58.127Z,180
2018-04-09T12:13:59.532Z,180
2018-04-09T12:15:00.943Z,180
2018-04-09T12:16:02.365Z,174
2018-04-09T12:17:03.948Z,174
2018-04-09T12:18:05.350Z,168
2018-04-09T12:19:06.744Z,163
2018-04-09T12:20:08.161Z,163
2018-04-09T12:21:09.575Z,157
2018-04-09T12:22:10.974Z,151
2018-04-09T12:23:12.379Z,151
2018-04-09T12:24:13.793Z,151
2018-04-09T12:25:15.197Z,151
2018-04-09T12:26:16.598Z,151
2018-04-09T12:27:18.003Z,151
2018-04-09T12:28:19.402Z,151
2018-04-09T12:29:20.798Z,151
2018-04-09T12:30:22.201Z,151
2018-04-09T12:31:23.625Z,146
2018-04-09T12:32:25.024Z,146
2018-04-09T12:33:26.431Z,146
2018-04-09T12:34:27.841Z,146
2018-04-09T12:35:29.272Z,146
2018-04-09T12:36:30.672Z,146
2018-04-09T12:37:32.068Z,140
2018-04-09T12:38:33.469Z,140
2018-04-09T12:39:34.866Z,140
2018-04-09T12:40:36.268Z,140
2018-04-09T12:41:37.655Z,135
2018-04-09T12:42:39.060Z,135
2018-04-09T12:43:40.457Z,129
2018-04-09T12:44:41.860Z,129
2018-04-09T12:45:43.296Z,123
2018-04-09T12:46:44.704Z,123
2018-04-09T12:47:46.228Z,123
2018-04-09T12:48:47.602Z,123
2018-04-09T12:49:49.018Z,123
2018-04-09T12:50:50.406Z,123
2018-04-09T12:51:51.811Z,129
2018-04-09T12:52:53.209Z,129
2018-04-09T12:53:54.626Z,135
2018-04-09T12:54:56.031Z,135
2018-04-09T12:55:57.426Z,135
2018-04-09T12:56:58.847Z,135
2018-04-09T12:58:00.233Z,140
2018-04-09T12:59:01.635Z,140
2018-04-09T13:00:03.126Z,146
2018-04-09T13:01:45.010Z,151
2018-04-09T13:02:46.407Z,151
2018-04-09T13:03:47.804Z,157
2018-04-09T13:04:49.210Z,157
2018-04-09T13:05:50.607Z,157
2018-04-09T13:06:52.006Z,163
2018-04-09T13:07:53.405Z,163
2018-04-09T13:08:54.811Z,163
2018-04-09T13:09:56.207Z,163
2018-04-09T13:10:57.604Z,168
2018-04-09T13:11:59.001Z,168
2018-04-09T13:13:00.399Z,168
2018-04-09T13:14:01.790Z,174
2018-04-09T13:15:03.268Z,174
2018-04-09T13:16:04.668Z,174
2018-04-09T13:17:06.057Z,174
2018-04-09T13:18:07.457Z,174
2018-04-09T13:19:08.864Z,174
2018-04-09T13:20:10.259Z,174
2018-04-09T13:21:11.657Z,174
2018-04-09T13:22:13.052Z,174
2018-04-09T13:23:14.463Z,180
2018-04-09T13:24:15.941Z,180
2018-04-09T13:25:17.335Z,185
2018-04-09T13:26:18.751Z,191
2018-04-09T13:27:20.138Z,202
2018-04-09T13:28:21.539Z,213
2018-04-09T13:29:22.937Z,219
2018-04-09T13:30:24.335Z,219
2018-04-09T13:31:25.730Z,219
2018-04-09T13:32:27.125Z,213
2018-04-09T13:33:28.593Z,208
2018-04-09T13:34:29.886Z,208
2018-04-09T13:35:31.317Z,208
2018-04-09T13:36:32.829Z,208
2018-04-09T13:37:34.286Z,213
2018-04-09T13:38:35.679Z,213
2018-04-09T13:39:37.078Z,208
2018-04-09T13:40:38.476Z,213
2018-04-09T13:41:39.891Z,219
2018-04-09T13:42:41.289Z,225
2018-04-09T13:43:42.688Z,225
2018-04-09T13:44:44.092Z,219
2018-04-09T13:45:45.492Z,219
2018-04-09T13:46:46.883Z,225
2018-04-09T13:47:48.279Z,230
2018-04-09T13:48:49.677Z,219
2018-04-09T13:49:51.080Z,230
2018-04-09T13:50:52.493Z,241
2018-04-09T13:51:53.905Z,230
2018-04-09T13:52:55.318Z,213
2018-04-09T13:53:56.710Z,208
2018-04-09T13:54:58.118Z,196
2018-04-09T13:55:59.523Z,196
2018-04-09T13:57:00.927Z,196
2018-04-09T13:58:02.323Z,202
2018-04-09T13:59:03.762Z,213
2018-04-09T14:00:05.189Z,219
2018-04-09T14:01:06.666Z,236
2018-04-09T14:02:08.061Z,258
2018-04-09T14:03:09.475Z,264
2018-04-09T14:04:10.884Z,275
2018-04-09T14:05:12.283Z,275
2018-04-09T14:06:13.791Z,247
2018-04-09T14:07:15.182Z,236
2018-04-09T14:08:16.589Z,219
2018-04-09T14:09:17.996Z,208
2018-04-09T14:10:19.393Z,208
2018-04-09T14:11:20.791Z,219
2018-04-09T14:12:22.190Z,213
2018-04-09T14:13:23.611Z,202
2018-04-09T14:14:25.005Z,191
2018-04-09T14:15:26.448Z,196
2018-04-09T14:16:27.845Z,202
2018-04-09T14:17:29.260Z,208
2018-04-09T14:18:30.662Z,185
2018-04-09T14:19:32.109Z,185
2018-04-09T14:20:33.550Z,185
2018-04-09T14:21:34.953Z,180
2018-04-09T14:22:36.476Z,180
2018-04-09T14:23:38.018Z,180
2018-04-09T14:24:39.418Z,185
2018-04-09T14:25:40.816Z,185
2018-04-09T14:26:42.220Z,196
2018-04-09T14:27:43.622Z,202
2018-04-09T14:28:45.033Z,213
2018-04-09T14:29:46.427Z,236
2018-04-09T14:30:47.858Z,236